Time;durP1;ratioP1;P1;durP2;ratioP2;P2;SDS_P1;SDS_P2;PMS_P1;PMS_P2;Temp;Humidity;BMP_temperature;BMP_pressure;BME280_temperature;BME280_humidity;BME280_pressure;Samples;Min_cycle;Max_cycle;Signal;HPM_P1;HPM_P2
2023/01/29 00:01:07;;;;;;;23.13;12.07;;;-3.10;99.90;;;;;;5057559;28;20286;-62
2023/01/29 00:03:33;;;;;;;12.97;11.77;;;-3.10;99.90;;;;;;5052268;28;20544;-64
2023/01/29 00:06:03;;;;;;;14.80;12.70;;;-3.10;99.90;;;;;;5061118;28;20180;-63
2023/01/29 00:08:29;;;;;;;14.10;12.40;;;-3.20;99.90;;;;;;5054915;28;20205;-64
2023/01/29 00:11:03;;;;;;;15.10;14.00;;;-3.20;99.90;;;;;;5051965;28;20171;-63
2023/01/29 00:13:29;;;;;;;12.17;11.03;;;-3.20;99.90;;;;;;5052008;28;20200;-64
2023/01/29 00:15:56;;;;;;;12.90;11.60;;;-3.20;99.90;;;;;;5062532;28;20217;-64
2023/01/29 00:18:22;;;;;;;11.63;10.33;;;-3.20;99.90;;;;;;5071860;28;20293;-64
2023/01/29 00:20:48;;;;;;;11.80;10.90;;;-3.20;99.90;;;;;;5062815;28;20539;-63
2023/01/29 00:23:14;;;;;;;12.70;11.70;;;-3.30;99.90;;;;;;5050845;28;20183;-64
2023/01/29 00:25:40;;;;;;;14.93;11.17;;;-3.40;99.90;;;;;;5058679;28;20216;-64
2023/01/29 00:28:06;;;;;;;13.93;12.50;;;-3.30;99.90;;;;;;5071043;28;20186;-64
2023/01/29 00:30:32;;;;;;;11.57;10.43;;;-3.40;99.90;;;;;;5069885;28;20219;-64
2023/01/29 00:32:57;;;;;;;19.03;13.13;;;-3.30;99.90;;;;;;5071752;28;20178;-64
2023/01/29 00:35:23;;;;;;;14.60;11.27;;;-3.40;99.90;;;;;;5068382;28;20175;-63
2023/01/29 00:37:49;;;;;;;13.17;12.10;;;-3.40;99.90;;;;;;5051920;28;20194;-63
2023/01/29 00:40:14;;;;;;;13.70;12.47;;;-3.50;99.90;;;;;;5051525;28;20159;-63
2023/01/29 00:45:24;;;;;;;12.60;11.43;;;-3.40;99.90;;;;;;5036264;28;20578;-63
2023/01/29 00:47:50;;;;;;;22.10;12.20;;;-3.40;99.90;;;;;;5071744;28;20190;-63
2023/01/29 00:50:15;;;;;;;11.57;10.43;;;-3.40;99.90;;;;;;5071086;28;20202;-63
2023/01/29 00:52:41;;;;;;;12.43;11.63;;;-3.50;99.90;;;;;;5051561;28;20190;-63
2023/01/29 00:55:08;;;;;;;12.80;12.00;;;-3.40;99.90;;;;;;5052220;28;20684;-64
2023/01/29 00:57:35;;;;;;;11.80;10.83;;;-3.40;99.90;;;;;;5069533;28;20645;-64
2023/01/29 01:00:02;;;;;;;13.13;12.23;;;-3.30;99.90;;;;;;5070085;28;20526;-63
2023/01/29 01:05:16;;;;;;;12.50;11.20;;;-3.30;99.90;;;;;;5051998;28;20552;-63
2023/01/29 01:07:43;;;;;;;15.43;12.50;;;-3.20;99.90;;;;;;5069642;28;20197;-63
2023/01/29 01:10:21;;;;;;;12.00;11.33;;;-3.30;99.90;;;;;;5056506;28;20278;-64
2023/01/29 01:12:49;;;;;;;11.50;10.80;;;-3.40;99.90;;;;;;5051406;28;20180;-63
2023/01/29 01:15:16;;;;;;;11.00;10.00;;;-3.40;99.90;;;;;;5065768;28;20659;-63
2023/01/29 01:17:42;;;;;;;12.20;11.07;;;-3.50;99.90;;;;;;5071097;28;20194;-63
2023/01/29 01:20:09;;;;;;;20.83;13.40;;;-3.50;99.90;;;;;;5057586;28;20324;-63
2023/01/29 01:22:35;;;;;;;10.97;10.17;;;-3.60;99.90;;;;;;5051341;28;20621;-64
2023/01/29 01:25:01;;;;;;;15.80;12.90;;;-3.60;99.90;;;;;;5062945;28;20189;-64
2023/01/29 01:27:26;;;;;;;13.50;12.73;;;-3.60;99.90;;;;;;5071107;28;20198;-64
2023/01/29 01:29:52;;;;;;;12.20;11.03;;;-3.70;99.90;;;;;;5068861;28;20186;-64
2023/01/29 01:32:18;;;;;;;11.50;10.80;;;-3.70;99.90;;;;;;5073604;28;20193;-63
2023/01/29 01:34:46;;;;;;;12.67;11.77;;;-3.70;99.90;;;;;;5072452;28;20209;-63
2023/01/29 01:37:12;;;;;;;11.53;10.53;;;-3.70;99.90;;;;;;5067664;28;20218;-63
2023/01/29 01:39:38;;;;;;;13.13;10.90;;;-3.70;99.90;;;;;;5071252;28;20205;-63
2023/01/29 01:42:09;;;;;;;12.50;11.07;;;-3.80;99.90;;;;;;5067307;28;20214;-64
2023/01/29 01:44:53;;;;;;;11.80;10.60;;;-3.80;99.90;;;;;;5055002;28;20212;-64
2023/01/29 01:47:51;;;;;;;13.23;12.27;;;-3.90;99.90;;;;;;5055147;28;20207;-64
2023/01/29 01:50:25;;;;;;;12.50;11.30;;;-3.80;99.90;;;;;;5034158;28;20199;-64
2023/01/29 01:52:57;;;;;;;11.57;10.87;;;-3.80;99.90;;;;;;5054102;28;20208;-64
2023/01/29 01:55:26;;;;;;;11.73;10.67;;;-3.80;99.90;;;;;;5061792;28;20760;-64
2023/01/29 01:57:59;;;;;;;14.03;11.80;;;-3.80;99.90;;;;;;5034923;28;20230;-64
2023/01/29 02:00:25;;;;;;;11.13;10.13;;;-3.80;99.90;;;;;;5050069;28;20265;-63
2023/01/29 02:11:17;;;;;;;11.83;11.07;;;-4.00;99.90;;;;;;5068714;28;20746;-63
2023/01/29 02:13:43;;;;;;;12.53;11.50;;;-4.10;99.90;;;;;;5074319;28;20318;-64
2023/01/29 02:16:09;;;;;;;12.40;11.67;;;;;;;;;;5061234;28;20209;-64
2023/01/29 02:18:36;;;;;;;12.00;10.90;;;-4.10;99.90;;;;;;5054436;28;20654;-64
2023/01/29 02:21:36;;;;;;;10.63;9.93;;;-4.10;99.90;;;;;;5065220;28;20178;-64
2023/01/29 02:24:29;;;;;;;11.20;10.70;;;-4.10;99.90;;;;;;5074589;28;20635;-64
2023/01/29 02:27:14;;;;;;;13.10;12.40;;;-4.10;99.90;;;;;;5055871;28;20230;-64
2023/01/29 02:29:42;;;;;;;13.73;12.40;;;-4.10;99.90;;;;;;5052650;28;20187;-64
2023/01/29 02:32:53;;;;;;;12.10;10.90;;;-4.20;99.90;;;;;;5073318;28;20648;-64
2023/01/29 02:35:31;;;;;;;11.77;11.07;;;-4.20;99.90;;;;;;5072433;28;20206;-64
2023/01/29 02:38:10;;;;;;;11.63;10.93;;;-4.20;99.90;;;;;;5070701;28;20210;-64
2023/01/29 02:40:59;;;;;;;14.73;13.70;;;-4.20;99.90;;;;;;5053942;28;20224;-63
2023/01/29 02:43:49;;;;;;;12.93;12.10;;;-4.20;99.90;;;;;;5060595;28;20649;-64
2023/01/29 02:46:28;;;;;;;14.50;12.63;;;-3.90;99.90;;;;;;5073913;28;20583;-64
2023/01/29 02:49:21;;;;;;;13.10;12.10;;;-4.20;99.90;;;;;;5063662;28;20716;-64
2023/01/29 02:52:13;;;;;;;13.10;12.00;;;-4.20;99.90;;;;;;5053678;28;20190;-64
2023/01/29 02:54:48;;;;;;;13.57;12.67;;;-4.20;99.90;;;;;;5068202;28;20238;-63
2023/01/29 02:57:19;;;;;;;13.63;12.47;;;-4.20;99.90;;;;;;5073689;28;20225;-64
2023/01/29 03:00:06;;;;;;;16.93;15.70;;;-4.20;99.90;;;;;;5057134;28;20237;-64
2023/01/29 03:02:55;;;;;;;12.07;11.37;;;-4.20;99.90;;;;;;5069897;28;20643;-64
2023/01/29 03:05:36;;;;;;;10.40;9.67;;;-4.10;99.90;;;;;;5073431;28;20635;-64
2023/01/29 03:08:09;;;;;;;11.77;10.87;;;-4.20;99.90;;;;;;5053437;28;20676;-64
2023/01/29 03:10:37;;;;;;;17.10;10.07;;;-4.20;99.90;;;;;;5053220;28;20641;-64
2023/01/29 03:13:16;;;;;;;11.10;10.27;;;-4.20;99.90;;;;;;5072523;28;20197;-64
2023/01/29 03:15:46;;;;;;;12.83;11.47;;;-4.30;99.90;;;;;;5072902;28;20536;-63
2023/01/29 03:18:17;;;;;;;11.60;10.77;;;-4.30;99.90;;;;;;5033355;28;20192;-64
2023/01/29 03:20:49;;;;;;;13.37;12.10;;;-4.30;99.90;;;;;;5031831;28;20207;-64
2023/01/29 03:23:46;;;;;;;13.13;12.03;;;-4.30;99.90;;;;;;5033355;28;20605;-64
2023/01/29 03:32:03;;;;;;;11.83;11.13;;;-4.20;99.90;;;;;;5066116;28;20220;-63
2023/01/29 03:34:33;;;;;;;13.20;12.03;;;-4.30;99.90;;;;;;5059675;28;20270;-64
2023/01/29 03:37:08;;;;;;;11.77;11.07;;;-4.20;99.90;;;;;;5072966;28;20228;-64
2023/01/29 03:39:34;;;;;;;10.53;10.00;;;-4.20;99.90;;;;;;5063823;28;20174;-64
2023/01/29 03:42:16;;;;;;;12.60;11.53;;;-4.20;99.90;;;;;;5053002;28;20174;-64
2023/01/29 03:45:15;;;;;;;11.83;10.80;;;-4.20;99.90;;;;;;5060479;28;20174;-64
2023/01/29 03:47:53;;;;;;;13.30;12.33;;;-4.20;99.90;;;;;;5072479;28;20194;-64
2023/01/29 03:50:40;;;;;;;12.17;11.37;;;-4.20;99.90;;;;;;5059955;28;20178;-64
2023/01/29 03:53:09;;;;;;;14.30;11.07;;;-4.20;99.90;;;;;;5052725;28;20209;-64
2023/01/29 03:55:44;;;;;;;14.53;13.13;;;-4.30;99.90;;;;;;5072307;28;20174;-64
2023/01/29 03:58:50;;;;;;;12.77;11.63;;;-4.30;99.90;;;;;;5071839;28;20280;-64
2023/01/29 04:01:22;;;;;;;17.43;12.57;;;-4.20;99.90;;;;;;5049070;28;20682;-64
2023/01/29 04:04:11;;;;;;;11.60;10.90;;;-4.30;99.90;;;;;;5069963;28;20227;-65
2023/01/29 04:06:39;;;;;;;14.07;11.03;;;-4.30;99.90;;;;;;5066106;28;20291;-65
2023/01/29 04:09:22;;;;;;;12.53;11.37;;;-4.30;99.90;;;;;;5052347;28;20183;-64
2023/01/29 04:12:09;;;;;;;11.03;10.13;;;-4.20;99.90;;;;;;5052130;28;20186;-65
2023/01/29 04:14:36;;;;;;;13.07;11.90;;;-4.20;99.90;;;;;;5032247;28;20298;-65
2023/01/29 04:17:09;;;;;;;11.93;11.17;;;-4.20;99.90;;;;;;5035320;28;20191;-65
2023/01/29 04:19:35;;;;;;;11.03;10.47;;;-4.20;99.90;;;;;;5071523;28;20178;-65
2023/01/29 04:22:09;;;;;;;12.47;11.40;;;-4.30;99.90;;;;;;5071354;28;20249;-65
2023/01/29 04:24:36;;;;;;;12.40;11.53;;;-4.10;99.90;;;;;;5052119;28;20182;-65
2023/01/29 04:27:43;;;;;;;12.67;11.63;;;-4.10;99.90;;;;;;5051945;28;20240;-65
2023/01/29 04:30:30;;;;;;;11.17;10.53;;;-4.10;99.90;;;;;;5075687;28;20191;-65
2023/01/29 04:33:20;;;;;;;12.47;11.63;;;-4.10;99.90;;;;;;5061168;28;20178;-65
2023/01/29 04:35:59;;;;;;;12.70;11.63;;;-4.20;99.90;;;;;;5053893;28;20186;-65
2023/01/29 04:38:41;;;;;;;16.17;15.03;;;-4.20;99.90;;;;;;5052993;28;20196;-64
2023/01/29 04:41:16;;;;;;;12.13;11.23;;;-4.20;99.90;;;;;;5040971;28;20182;-65
2023/01/29 04:43:44;;;;;;;13.33;12.13;;;-4.20;99.90;;;;;;5051034;28;20182;-65
2023/01/29 04:46:21;;;;;;;11.93;11.10;;;-3.90;99.90;;;;;;5051783;28;20307;-65
2023/01/29 04:49:00;;;;;;;13.47;12.07;;;-4.20;99.90;;;;;;5051929;28;20174;-65
2023/01/29 04:52:01;;;;;;;10.90;10.10;;;-4.10;99.90;;;;;;5056682;28;20213;-65
2023/01/29 04:54:53;;;;;;;10.73;9.73;;;-4.10;99.90;;;;;;5071600;28;20425;-65
2023/01/29 04:57:31;;;;;;;11.63;10.63;;;-4.00;99.90;;;;;;5058281;28;20202;-65
2023/01/29 05:00:10;;;;;;;12.10;11.30;;;-4.00;99.90;;;;;;5051312;28;20182;-65
2023/01/29 05:02:38;;;;;;;12.27;11.43;;;-4.20;99.90;;;;;;5065640;28;20213;-65
2023/01/29 05:05:06;;;;;;;10.03;9.50;;;-4.10;99.90;;;;;;5071579;28;20178;-64
2023/01/29 05:07:34;;;;;;;11.40;10.73;;;-4.10;99.90;;;;;;5057737;28;20218;-65
2023/01/29 05:10:00;;;;;;;13.03;9.70;;;-4.10;99.90;;;;;;5051133;28;20265;-65
2023/01/29 05:12:28;;;;;;;18.87;11.80;;;-4.20;99.90;;;;;;5062902;28;20261;-65
2023/01/29 05:14:57;;;;;;;10.80;10.07;;;-4.10;99.90;;;;;;5071375;28;20210;-65
2023/01/29 05:17:23;;;;;;;11.80;10.33;;;-4.10;99.90;;;;;;5059403;28;20194;-65
2023/01/29 05:19:49;;;;;;;12.47;10.20;;;-4.10;99.90;;;;;;5051139;28;20175;-65
2023/01/29 05:22:17;;;;;;;11.50;10.43;;;-4.10;99.90;;;;;;5060543;28;20177;-65
2023/01/29 05:24:43;;;;;;;11.20;10.30;;;-4.10;99.90;;;;;;5063862;28;20182;-65
2023/01/29 05:30:01;;;;;;;11.27;10.30;;;-4.20;99.90;;;;;;5059370;28;20315;-65
2023/01/29 05:32:26;;;;;;;9.67;9.07;;;-4.10;99.90;;;;;;5071157;28;20210;-65
2023/01/29 05:34:52;;;;;;;12.47;11.53;;;-4.10;99.90;;;;;;5063180;28;20221;-65
2023/01/29 05:37:17;;;;;;;11.20;10.27;;;-4.10;99.90;;;;;;5051100;28;20207;-65
2023/01/29 05:39:43;;;;;;;11.30;10.23;;;-4.10;99.90;;;;;;5056308;28;20170;-65
2023/01/29 05:42:08;;;;;;;8.93;8.53;;;-4.10;99.90;;;;;;5071106;28;20643;-65
2023/01/29 05:44:34;;;;;;;11.07;10.23;;;-4.10;99.90;;;;;;5066739;28;20270;-65
2023/01/29 05:47:01;;;;;;;9.10;8.67;;;-4.10;99.90;;;;;;5051026;28;20205;-65
2023/01/29 05:49:27;;;;;;;11.87;10.90;;;-4.00;99.90;;;;;;5052944;28;20218;-64
2023/01/29 05:51:53;;;;;;;10.97;10.27;;;-4.00;99.90;;;;;;5070257;28;20225;-65
2023/01/29 05:54:18;;;;;;;11.67;10.93;;;-4.00;99.90;;;;;;5050775;28;20207;-65
2023/01/29 05:56:44;;;;;;;10.33;9.53;;;-4.00;99.90;;;;;;5070144;28;20572;-65
2023/01/29 05:59:10;;;;;;;10.10;9.37;;;-4.00;99.90;;;;;;5068985;28;20178;-65
2023/01/29 06:01:35;;;;;;;9.73;9.03;;;-4.00;99.90;;;;;;5050828;28;20183;-65
2023/01/29 06:04:01;;;;;;;11.73;11.13;;;-3.90;99.90;;;;;;5050960;28;20258;-65
2023/01/29 06:06:26;;;;;;;12.17;11.47;;;-3.50;99.90;;;;;;5069989;28;20667;-65
2023/01/29 06:08:52;;;;;;;11.20;10.40;;;-4.00;99.90;;;;;;5070888;28;20186;-65
2023/01/29 06:11:18;;;;;;;10.17;9.37;;;-3.90;99.90;;;;;;5052363;28;20508;-65
2023/01/29 06:13:47;;;;;;;11.50;10.53;;;-3.90;99.90;;;;;;5050625;28;20289;-65
2023/01/29 06:16:12;;;;;;;11.30;10.27;;;-3.90;99.90;;;;;;5066149;28;20186;-65
2023/01/29 06:18:39;;;;;;;12.17;11.30;;;-3.90;99.90;;;;;;5070615;28;20174;-65
2023/01/29 06:21:07;;;;;;;12.60;10.53;;;-3.90;99.90;;;;;;5055217;28;20190;-65
2023/01/29 06:23:32;;;;;;;9.87;9.27;;;-3.90;99.90;;;;;;5050466;28;20695;-65
2023/01/29 06:26:06;;;;;;;11.43;10.33;;;-3.90;99.90;;;;;;5064218;28;20177;-65
2023/01/29 06:28:32;;;;;;;10.00;9.23;;;-3.90;99.90;;;;;;5070571;28;20214;-65
2023/01/29 06:30:59;;;;;;;10.93;10.10;;;-3.90;99.90;;;;;;5060679;28;20673;-65
2023/01/29 06:33:24;;;;;;;9.90;9.27;;;-3.90;99.90;;;;;;5054229;28;20183;-65
2023/01/29 06:35:56;;;;;;;10.57;9.93;;;-3.90;99.90;;;;;;5065642;28;20193;-65
2023/01/29 06:38:21;;;;;;;10.13;9.43;;;-3.90;99.90;;;;;;5074008;28;20190;-65
2023/01/29 06:40:47;;;;;;;11.17;10.10;;;-3.90;99.90;;;;;;5063054;28;20213;-65
2023/01/29 06:43:12;;;;;;;13.40;12.53;;;-3.90;99.90;;;;;;5053017;28;20211;-65
2023/01/29 06:45:44;;;;;;;11.77;11.10;;;-3.80;99.90;;;;;;5062310;28;20636;-65
2023/01/29 06:48:10;;;;;;;10.17;9.47;;;-3.80;99.90;;;;;;5066331;28;20249;-65
2023/01/29 06:50:35;;;;;;;11.17;10.37;;;-3.80;99.90;;;;;;5053465;28;20175;-65
2023/01/29 06:53:01;;;;;;;12.77;10.07;;;-3.70;99.90;;;;;;5059239;28;20574;-65
2023/01/29 06:55:26;;;;;;;13.30;9.60;;;-3.70;99.90;;;;;;5073735;28;20206;-65
2023/01/29 06:57:52;;;;;;;11.60;10.60;;;-3.60;99.90;;;;;;5069785;28;20286;-65
2023/01/29 07:00:19;;;;;;;11.50;10.63;;;-3.50;99.90;;;;;;5053415;28;20542;-65
2023/01/29 07:02:48;;;;;;;12.10;11.20;;;-3.40;99.90;;;;;;5057127;28;20181;-65
2023/01/29 07:05:14;;;;;;;12.20;11.33;;;-3.30;99.90;;;;;;5074356;28;20644;-66
2023/01/29 07:07:39;;;;;;;11.63;10.00;;;-3.10;99.90;;;;;;5069473;28;21969;-65
2023/01/29 07:10:06;;;;;;;12.63;11.33;;;-3.00;99.90;;;;;;5053423;28;20175;-65
2023/01/29 07:12:31;;;;;;;10.37;9.30;;;-2.90;99.90;;;;;;5053757;28;20179;-65
2023/01/29 07:14:57;;;;;;;16.17;11.10;;;-2.70;99.90;;;;;;5073451;28;20222;-65
2023/01/29 07:17:23;;;;;;;10.10;9.40;;;-2.50;99.90;;;;;;5062379;28;20207;-66
2023/01/29 07:19:48;;;;;;;10.53;9.77;;;-2.50;99.90;;;;;;5055331;28;20187;-64
2023/01/29 07:22:15;;;;;;;16.07;11.90;;;-2.40;99.90;;;;;;5083652;28;20176;-65
2023/01/29 07:24:41;;;;;;;14.57;12.90;;;-2.30;99.90;;;;;;5082493;28;20178;-65
2023/01/29 07:27:06;;;;;;;10.50;9.50;;;-2.20;99.90;;;;;;5077781;28;20198;-63
2023/01/29 07:29:32;;;;;;;11.17;10.03;;;-2.20;99.90;;;;;;5072733;28;20261;-65
2023/01/29 07:31:58;;;;;;;10.67;9.73;;;-2.10;99.90;;;;;;5061660;28;20178;-65
2023/01/29 07:34:23;;;;;;;10.30;9.60;;;-2.10;99.90;;;;;;5059887;28;20301;-65
2023/01/29 07:36:52;;;;;;;12.00;11.23;;;-2.10;99.90;;;;;;5070673;28;20201;-65
2023/01/29 07:39:18;;;;;;;11.97;11.10;;;-2.00;99.90;;;;;;5072447;28;20170;-65
2023/01/29 07:41:43;;;;;;;11.37;9.87;;;-2.00;99.90;;;;;;5070623;28;20671;-65
2023/01/29 07:44:09;;;;;;;14.43;10.80;;;-1.90;99.90;;;;;;5053199;28;20241;-66
2023/01/29 07:46:34;;;;;;;12.00;10.87;;;-1.90;99.90;;;;;;5067533;28;20206;-63
2023/01/29 07:49:00;;;;;;;25.03;14.43;;;-1.80;99.90;;;;;;5072719;28;20663;-65
2023/01/29 07:51:26;;;;;;;11.47;10.63;;;-1.70;99.90;;;;;;5070512;28;20221;-66
2023/01/29 07:53:52;;;;;;;16.97;11.50;;;-1.60;99.90;;;;;;5054086;28;20218;-65
2023/01/29 07:56:17;;;;;;;12.93;11.77;;;-1.90;99.90;;;;;;5067110;28;20174;-63
2023/01/29 07:58:43;;;;;;;12.13;11.23;;;-1.60;99.90;;;;;;5072441;28;20182;-65
2023/01/29 08:01:09;;;;;;;13.20;12.13;;;-1.50;99.90;;;;;;5055991;28;20571;-65
2023/01/29 08:03:35;;;;;;;11.00;10.13;;;-1.50;99.90;;;;;;5052224;28;20178;-65
2023/01/29 08:06:02;;;;;;;10.63;9.93;;;-1.50;99.90;;;;;;5068012;28;20236;-65
2023/01/29 08:08:28;;;;;;;10.60;9.90;;;-1.50;99.90;;;;;;5070966;28;20556;-66
2023/01/29 08:10:54;;;;;;;15.60;11.40;;;-1.40;99.90;;;;;;5056904;28;20179;-65
2023/01/29 08:13:19;;;;;;;11.93;10.97;;;-1.30;99.90;;;;;;5047442;28;20249;-65
2023/01/29 08:15:45;;;;;;;11.57;10.40;;;-1.30;99.90;;;;;;5058165;28;20182;-65
2023/01/29 08:18:11;;;;;;;14.37;12.67;;;-1.20;99.90;;;;;;5071779;28;20190;-65
2023/01/29 08:20:37;;;;;;;13.07;10.93;;;-1.20;99.90;;;;;;5047219;28;21017;-65
2023/01/29 08:23:06;;;;;;;10.97;10.13;;;-1.20;99.90;;;;;;5032475;28;20203;-65
2023/01/29 08:25:32;;;;;;;10.67;9.93;;;-1.10;99.90;;;;;;5068874;28;20186;-65
2023/01/29 08:27:58;;;;;;;12.83;11.80;;;-1.00;99.90;;;;;;5071235;28;20191;-65
2023/01/29 08:30:32;;;;;;;11.67;10.57;;;-1.00;99.90;;;;;;5054547;28;20179;-65
2023/01/29 08:32:57;;;;;;;12.17;10.97;;;-1.00;99.90;;;;;;5050936;28;20205;-65
2023/01/29 08:35:24;;;;;;;12.90;9.77;;;-1.00;99.90;;;;;;5066576;28;20209;-65
2023/01/29 08:37:53;;;;;;;9.57;8.93;;;-0.90;99.90;;;;;;5071562;28;20186;-66
2023/01/29 08:40:19;;;;;;;12.67;10.07;;;-0.90;99.90;;;;;;5059633;28;20186;-65
2023/01/29 08:42:44;;;;;;;15.30;11.40;;;-0.80;99.90;;;;;;5051977;28;20515;-65
2023/01/29 08:45:10;;;;;;;14.00;12.70;;;-0.70;99.90;;;;;;5051831;28;20178;-65
2023/01/29 08:47:36;;;;;;;11.00;10.17;;;-0.80;99.90;;;;;;5051317;28;20260;-65
2023/01/29 08:50:02;;;;;;;10.77;9.47;;;-0.90;99.90;;;;;;5051472;28;20209;-65
2023/01/29 08:52:27;;;;;;;10.90;10.03;;;-0.90;99.90;;;;;;5050453;28;20197;-65
2023/01/29 08:54:53;;;;;;;11.83;10.73;;;-0.90;99.90;;;;;;5069117;28;20595;-65
2023/01/29 08:57:18;;;;;;;11.70;10.50;;;-0.90;99.90;;;;;;5071450;28;20197;-65
2023/01/29 08:59:44;;;;;;;15.50;10.13;;;-0.80;99.90;;;;;;5054783;28;20171;-65
2023/01/29 09:02:10;;;;;;;11.50;10.50;;;-0.90;99.90;;;;;;5050340;28;20174;-64
2023/01/29 09:04:36;;;;;;;10.10;9.13;;;-0.80;99.90;;;;;;5065407;28;20181;-65
2023/01/29 09:07:01;;;;;;;13.47;12.07;;;-0.80;99.90;;;;;;5071393;28;20201;-65
2023/01/29 09:09:27;;;;;;;11.43;10.47;;;-0.80;99.90;;;;;;5058646;28;20186;-65
2023/01/29 09:11:53;;;;;;;12.77;11.23;;;-0.80;99.90;;;;;;5051323;28;20178;-65
2023/01/29 09:14:18;;;;;;;14.30;12.60;;;-0.70;99.90;;;;;;5061782;28;20212;-65
2023/01/29 09:16:44;;;;;;;13.20;11.93;;;-0.60;99.90;;;;;;5072529;28;20186;-65
2023/01/29 09:19:09;;;;;;;18.03;12.20;;;-0.50;99.90;;;;;;5053762;28;20794;-65
2023/01/29 09:21:35;;;;;;;14.20;10.07;;;-0.40;99.90;;;;;;5049712;28;20181;-65
2023/01/29 09:24:01;;;;;;;19.60;12.23;;;-0.30;99.90;;;;;;5068036;28;20186;-65
2023/01/29 09:26:26;;;;;;;11.80;10.67;;;-0.40;99.90;;;;;;5072992;28;20181;-65
2023/01/29 09:28:52;;;;;;;11.60;10.40;;;-0.20;99.90;;;;;;5056058;28;20191;-65
2023/01/29 09:31:17;;;;;;;9.90;9.07;;;-0.10;99.90;;;;;;5051073;28;20186;-65
2023/01/29 09:33:43;;;;;;;16.00;10.53;;;0.00;99.90;;;;;;5061570;28;20224;-65
2023/01/29 09:36:08;;;;;;;12.40;10.80;;;0.10;99.90;;;;;;5070845;28;20715;-65
2023/01/29 09:38:34;;;;;;;10.57;9.77;;;0.10;99.90;;;;;;5060511;28;20396;-65
2023/01/29 09:41:13;;;;;;;9.10;8.37;;;0.10;99.90;;;;;;5050774;28;20175;-65
2023/01/29 09:44:02;;;;;;;11.13;10.07;;;0.10;99.90;;;;;;5061097;28;20181;-64
2023/01/29 09:46:40;;;;;;;19.83;13.73;;;0.20;99.90;;;;;;5070505;28;20182;-65
2023/01/29 09:49:18;;;;;;;12.33;11.13;;;0.10;99.90;;;;;;5050878;28;20159;-64
2023/01/29 09:51:50;;;;;;;13.40;11.97;;;0.10;99.90;;;;;;5051214;28;20255;-65
2023/01/29 09:54:28;;;;;;;12.20;11.03;;;0.20;99.90;;;;;;5063480;28;20582;-65
2023/01/29 09:56:55;;;;;;;10.80;9.80;;;0.20;99.90;;;;;;5059199;28;20194;-65
2023/01/29 09:59:25;;;;;;;13.17;9.80;;;0.30;99.90;;;;;;5050729;28;20163;-65
2023/01/29 10:02:17;;;;;;;12.83;9.83;;;0.30;99.90;;;;;;5061384;28;20224;-65
2023/01/29 10:05:28;;;;;;;12.37;11.20;;;0.40;99.90;;;;;;5074774;28;20231;-65
2023/01/29 10:08:17;;;;;;;11.30;10.50;;;0.80;99.90;;;;;;5018186;28;20224;-65
2023/01/29 10:10:49;;;;;;;13.67;11.03;;;0.70;99.90;;;;;;5057473;28;20197;-65
2023/01/29 10:13:19;;;;;;;13.97;10.00;;;0.70;99.90;;;;;;5083416;28;20202;-65
2023/01/29 10:16:12;;;;;;;22.10;12.83;;;0.70;99.90;;;;;;5082063;28;20186;-64
2023/01/29 10:18:43;;;;;;;24.57;10.23;;;0.70;99.90;;;;;;5055260;28;20167;-65
2023/01/29 10:21:41;;;;;;;12.17;11.07;;;0.80;99.90;;;;;;5055594;28;20179;-65
2023/01/29 10:24:10;;;;;;;11.20;10.47;;;0.80;99.90;;;;;;5053857;28;20575;-64
2023/01/29 10:26:36;;;;;;;20.60;10.97;;;0.80;99.90;;;;;;5061279;28;20229;-65
2023/01/29 10:29:06;;;;;;;11.00;9.97;;;0.80;99.90;;;;;;5074593;28;20174;-64
2023/01/29 10:31:37;;;;;;;14.37;11.93;;;0.50;99.90;;;;;;5072555;28;20217;-65
2023/01/29 10:34:15;;;;;;;11.23;10.00;;;0.80;99.90;;;;;;5074336;28;20297;-65
2023/01/29 10:36:44;;;;;;;12.20;10.87;;;0.80;99.90;;;;;;5066179;28;20194;-65
2023/01/29 10:39:21;;;;;;;11.40;10.50;;;0.80;99.90;;;;;;5054091;28;20194;-64
2023/01/29 10:42:05;;;;;;;17.30;11.63;;;0.90;99.90;;;;;;5054926;28;20193;-65
2023/01/29 10:44:44;;;;;;;11.40;10.67;;;1.00;99.90;;;;;;5055863;28;20273;-65
2023/01/29 10:47:29;;;;;;;15.47;11.57;;;1.00;99.90;;;;;;5074115;28;20272;-65
2023/01/29 10:50:19;;;;;;;11.70;10.53;;;1.10;99.90;;;;;;5067991;28;20186;-66
2023/01/29 10:52:48;;;;;;;12.77;11.80;;;1.20;99.90;;;;;;5073025;28;20244;-65
2023/01/29 10:55:33;;;;;;;14.53;10.37;;;1.30;99.90;;;;;;5065846;28;20512;-66
2023/01/29 10:58:29;;;;;;;10.83;10.03;;;1.30;99.90;;;;;;5058234;28;20232;-66
2023/01/29 11:00:55;;;;;;;10.97;10.00;;;1.40;99.90;;;;;;5072390;28;20182;-66
2023/01/29 11:03:25;;;;;;;14.67;11.47;;;1.40;97.80;;;;;;5065161;28;20183;-65
2023/01/29 11:05:58;;;;;;;12.97;11.87;;;1.40;99.10;;;;;;5053737;28;20685;-65
2023/01/29 11:08:30;;;;;;;12.87;10.90;;;1.30;91.90;;;;;;5061103;28;20202;-65
2023/01/29 11:11:04;;;;;;;14.47;12.00;;;1.30;99.90;;;;;;5073637;28;20206;-65
2023/01/29 11:13:40;;;;;;;11.17;10.37;;;1.40;99.90;;;;;;5071777;28;20177;-65
2023/01/29 11:16:08;;;;;;;12.87;11.47;;;1.40;93.30;;;;;;5072915;28;20516;-65
2023/01/29 11:18:50;;;;;;;21.37;11.77;;;1.40;80.20;;;;;;5062867;28;20643;-64
2023/01/29 11:21:16;;;;;;;12.07;10.57;;;1.40;81.60;;;;;;5053279;28;20231;-65
2023/01/29 11:23:41;;;;;;;12.10;10.80;;;1.50;83.40;;;;;;5062726;28;20217;-65
2023/01/29 11:26:11;;;;;;;11.63;10.00;;;1.50;65.90;;;;;;5073357;28;20174;-64
2023/01/29 11:28:42;;;;;;;13.23;11.67;;;1.60;80.00;;;;;;5063806;28;20189;-64
2023/01/29 11:31:24;;;;;;;11.20;10.20;;;1.60;43.70;;;;;;5051420;28;20190;-64
2023/01/29 11:33:52;;;;;;;11.37;10.20;;;1.60;55.10;;;;;;5063221;28;20220;-65
2023/01/29 11:36:37;;;;;;;12.23;11.07;;;1.70;80.30;;;;;;5073030;28;20548;-65
2023/01/29 11:39:21;;;;;;;14.07;12.23;;;1.80;51.90;;;;;;5071626;28;20206;-65
2023/01/29 11:41:49;;;;;;;10.77;9.83;;;1.90;34.90;;;;;;5072868;28;20201;-65
2023/01/29 11:44:28;;;;;;;19.60;14.10;;;1.90;11.90;;;;;;5060535;28;20286;-65
2023/01/29 11:46:56;;;;;;;13.50;11.97;;;2.00;11.50;;;;;;5052882;28;20622;-64
2023/01/29 11:49:29;;;;;;;14.53;12.40;;;2.00;17.30;;;;;;5065092;28;20185;-65
2023/01/29 11:51:57;;;;;;;23.07;11.83;;;2.10;14.20;;;;;;5072707;28;20197;-64
2023/01/29 11:54:26;;;;;;;16.40;13.37;;;2.20;16.00;;;;;;5060486;28;20218;-65
2023/01/29 11:56:53;;;;;;;12.97;10.97;;;2.30;6.40;;;;;;5062711;28;20196;-65
2023/01/29 11:59:39;;;;;;;12.93;11.43;;;2.50;1.00;;;;;;5072526;28;20182;-64
2023/01/29 12:02:16;;;;;;;21.40;12.10;;;2.60;1.00;;;;;;5053004;28;20643;-65
2023/01/29 12:04:42;;;;;;;13.10;9.80;;;2.60;1.00;;;;;;5052707;28;20579;-65
2023/01/29 12:07:13;;;;;;;20.10;12.53;;;2.80;1.00;;;;;;5063251;28;20209;-65
2023/01/29 12:09:40;;;;;;;17.83;14.07;;;3.00;1.00;;;;;;5072500;28;20177;-65
2023/01/29 12:12:28;;;;;;;17.43;14.43;;;3.10;1.00;;;;;;5062142;28;20175;-65
2023/01/29 12:15:03;;;;;;;23.23;16.10;;;3.20;1.00;;;;;;5052570;28;20194;-65
2023/01/29 12:17:34;;;;;;;18.97;17.03;;;3.30;1.00;;;;;;5064379;28;20194;-65
2023/01/29 12:20:05;;;;;;;19.93;15.40;;;3.40;1.00;;;;;;5072419;28;20598;-64
2023/01/29 12:22:50;;;;;;;14.20;12.77;;;3.50;1.00;;;;;;5060092;28;20245;-64
2023/01/29 12:25:49;;;;;;;19.73;13.83;;;3.70;1.00;;;;;;5052738;28;20240;-64
2023/01/29 12:28:33;;;;;;;14.43;12.93;;;3.70;1.00;;;;;;5069226;28;20202;-64
2023/01/29 12:31:23;;;;;;;18.80;12.67;;;3.60;1.00;;;;;;5071950;28;20281;-64
2023/01/29 12:34:05;;;;;;;16.00;14.40;;;3.40;1.00;;;;;;5068980;28;20652;-64
2023/01/29 12:36:36;;;;;;;16.57;13.83;;;3.40;1.00;;;;;;5053903;28;20609;-65
2023/01/29 12:39:02;;;;;;;14.63;13.27;;;3.30;1.00;;;;;;5071975;28;20173;-64
2023/01/29 12:41:35;;;;;;;22.30;14.43;;;3.40;1.00;;;;;;5070035;28;20166;-64
2023/01/29 12:44:15;;;;;;;17.67;14.90;;;3.40;1.00;;;;;;5060698;28;20182;-65
2023/01/29 12:46:49;;;;;;;17.50;16.00;;;3.40;1.00;;;;;;5051938;28;20200;-65
2023/01/29 12:49:18;;;;;;;19.60;13.50;;;3.40;1.00;;;;;;5052169;28;20659;-65
2023/01/29 12:52:08;;;;;;;16.73;15.13;;;3.50;1.00;;;;;;5052065;28;20199;-65
2023/01/29 12:54:41;;;;;;;17.30;14.60;;;3.60;1.00;;;;;;5051566;28;20210;-64
2023/01/29 12:57:16;;;;;;;16.10;14.27;;;3.60;1.00;;;;;;5056829;28;20213;-64
2023/01/29 12:59:48;;;;;;;13.83;12.60;;;3.70;1.00;;;;;;5071112;28;20257;-65
2023/01/29 13:02:25;;;;;;;14.50;13.03;;;3.80;1.00;;;;;;5072192;28;20223;-65
2023/01/29 13:05:01;;;;;;;17.50;15.50;;;3.80;1.00;;;;;;5071199;28;20174;-64
2023/01/29 13:07:32;;;;;;;13.57;12.33;;;3.80;1.00;;;;;;5057220;28;20212;-65
2023/01/29 13:10:06;;;;;;;19.70;13.40;;;3.80;1.00;;;;;;5078895;28;20580;-62
2023/01/29 13:12:33;;;;;;;20.57;13.17;;;3.80;1.00;;;;;;5071901;28;20181;-64
2023/01/29 13:15:27;;;;;;;16.27;12.90;;;3.80;1.00;;;;;;5058836;28;20206;-64
2023/01/29 13:17:57;;;;;;;19.53;14.07;;;3.80;1.00;;;;;;5051283;28;20191;-64
2023/01/29 13:20:27;;;;;;;23.07;13.83;;;3.90;1.00;;;;;;5066098;28;20189;-64